weather.gov     
National Weather Service

Terminal Aerodrome Forecast
NWS Homepage
This page is being discontinued on March 12, 2014.
The same data is available at this site. Please update your bookmarks.
Thank you, and we apologize for the inconvenience.
Please send an email to SR-SRH.Webmaster@noaa.gov with any concerns.


Current Version
Previous Version:    01  02  03  04  05  06  07  08  09  10  11  12  13  14  15  16  17  18  19  20  21  22  23  24  25  26  27  28  29  30  
   31  32  33  34  35  36  37  38  39  40  41  42  43  
[Printable]
573
FTUS41 KBOX 261615 AAC
TAFORH
TAF AMD
KORH 261615Z 2616/2712 02008KT 1/4SM SN FG OVC003
     FM261900 03009KT 1/4SM +SN OVC003
     FM262200 03010G20KT 1/4SM +SNPL OVC003 WS020/04040KT
     FM270100 02011KT 1/2SM SNPL OVC010 WS020/03040KT
     FM270300 36011G17KT P6SM OVC015
     FM271000 32010KT P6SM BKN040=


573
FTUS41 KBOX 261615 AAC
TAFORH
TAF AMD
KORH 261615Z 2616/2712 02008KT 1/4SM SN FG OVC003
     FM261900 03009KT 1/4SM +SN OVC003
     FM262200 03010G20KT 1/4SM +SNPL OVC003 WS020/04040KT
     FM270100 02011KT 1/2SM SNPL OVC010 WS020/03040KT
     FM270300 36011G17KT P6SM OVC015
     FM271000 32010KT P6SM BKN040=




U.S. Dept. of Commerce
NOAA National Weather Service
1325 East West Highway
Silver Spring, MD 20910
E-mail: w-nws.webmaster@noaa.gov
Page last modified: May 16, 2007
NATIONAL WEATHER SERVICE: for Safety, for Work, for Fun - FOR LIFE